Time;durP1;ratioP1;P1;durP2;ratioP2;P2;SDS_P1;SDS_P2;PMS_P1;PMS_P2;Temp;Humidity;BMP_temperature;BMP_pressure;BME280_temperature;BME280_humidity;BME280_pressure;Samples;Min_cycle;Max_cycle;Signal;HPM_P1;HPM_P2
2022/04/03 00:02:01;;;;;;;3.40;1.42;;;;;;;-1.30;76.77;101150.78;5274869;28;20027;-75
2022/04/03 00:04:31;;;;;;;2.72;1.23;;;;;;;-1.44;76.97;101143.66;5273339;28;20056;-74
2022/04/03 00:07:02;;;;;;;2.97;1.48;;;;;;;-1.65;78.77;101153.41;5275366;28;20016;-74
2022/04/03 00:09:33;;;;;;;3.33;1.30;;;;;;;-1.66;79.03;101154.22;5274871;28;20499;-75
2022/04/03 00:12:04;;;;;;;2.60;1.27;;;;;;;-1.47;79.17;101149.56;5272183;28;20248;-74
2022/04/03 00:14:34;;;;;;;3.00;1.40;;;;;;;-1.54;77.77;101144.25;5264920;28;20050;-74
2022/04/03 00:17:04;;;;;;;2.83;1.48;;;;;;;-1.70;77.83;101153.31;5268312;28;20039;-74
2022/04/03 00:19:34;;;;;;;2.53;1.20;;;;;;;-1.62;78.99;101156.03;5274475;28;20023;-74
2022/04/03 00:22:05;;;;;;;2.22;1.30;;;;;;;-1.91;79.72;101157.09;5271910;28;20036;-74
2022/04/03 00:24:35;;;;;;;3.78;1.55;;;;;;;-1.81;78.97;101153.88;5256716;28;20076;-74
2022/04/03 00:27:06;;;;;;;3.88;1.65;;;;;;;-1.94;80.25;101157.03;5267410;28;20027;-74
2022/04/03 00:29:36;;;;;;;2.95;1.35;;;;;;;-1.85;79.98;101153.81;5272415;28;20020;-74
2022/04/03 00:32:07;;;;;;;4.10;1.83;;;;;;;-1.78;79.37;101153.97;5253758;28;20027;-75
2022/04/03 00:34:37;;;;;;;2.50;1.42;;;;;;;-1.50;78.59;101140.94;5270515;28;20019;-74
2022/04/03 00:37:07;;;;;;;2.63;1.52;;;;;;;-1.63;77.26;101142.38;5271071;28;20034;-74
2022/04/03 00:39:38;;;;;;;3.10;1.60;;;;;;;-1.87;78.50;101148.63;5272379;28;20579;-74
2022/04/03 00:42:09;;;;;;;3.92;1.45;;;;;;;-1.89;79.80;101150.28;5274912;28;20285;-75
2022/04/03 00:44:40;;;;;;;4.50;1.70;;;;;;;-2.08;80.23;101150.69;5243050;28;20046;-74
2022/04/03 00:47:12;;;;;;;4.60;1.88;;;;;;;-1.83;80.46;101154.69;5266825;28;20059;-74
2022/04/03 00:49:42;;;;;;;7.07;2.38;;;;;;;-1.75;79.27;101161.72;5274552;28;20389;-74
2022/04/03 00:52:13;;;;;;;5.63;2.35;;;;;;;-1.52;80.41;101145.16;5271256;28;20035;-74
2022/04/03 00:54:44;;;;;;;6.88;2.08;;;;;;;-1.69;80.42;101159.28;5275030;28;20019;-74
2022/04/03 00:57:14;;;;;;;3.58;1.98;;;;;;;-1.62;79.77;101156.91;5271261;28;20036;-74
2022/04/03 00:59:45;;;;;;;4.38;2.13;;;;;;;-2.00;81.45;101156.00;5274747;28;20080;-74
2022/04/03 01:02:16;;;;;;;5.35;2.05;;;;;;;-1.97;83.10;101156.91;5271250;28;20496;-75
2022/04/03 01:04:46;;;;;;;5.05;2.70;;;;;;;-2.20;84.01;101152.94;5274085;28;20501;-75
2022/04/03 01:07:17;;;;;;;7.68;3.30;;;;;;;-2.19;84.13;101154.69;5272057;28;20032;-75
2022/04/03 01:09:48;;;;;;;10.73;4.10;;;;;;;-2.10;84.68;101157.47;5269614;28;20501;-75
2022/04/03 01:12:18;;;;;;;6.97;2.88;;;;;;;-2.12;83.36;101151.47;5273758;28;20027;-75
2022/04/03 01:14:48;;;;;;;5.53;2.55;;;;;;;-2.21;84.47;101156.34;5261878;28;20016;-76
2022/04/03 01:17:18;;;;;;;6.65;2.80;;;;;;;-1.92;83.38;101150.22;5267051;28;20208;-75
2022/04/03 01:19:49;;;;;;;7.18;3.03;;;;;;;-1.72;81.05;101154.09;5270753;28;20016;-75
2022/04/03 01:22:19;;;;;;;8.00;2.95;;;;;;;-1.77;81.32;101151.44;5271917;28;20046;-75
2022/04/03 01:24:55;;;;;;;7.10;2.92;;;;;;;-1.94;80.66;101151.91;5255433;28;20030;-75
2022/04/03 01:27:25;;;;;;;7.55;2.67;;;;;;;-2.06;81.85;101149.03;5273015;28;20024;-75
2022/04/03 01:29:57;;;;;;;5.47;2.53;;;;;;;-1.98;80.17;101151.78;5272795;28;20491;-75
2022/04/03 01:32:27;;;;;;;4.80;2.53;;;;;;;-2.21;80.79;101156.34;5272566;28;20028;-75
2022/04/03 01:34:58;;;;;;;5.18;2.28;;;;;;;-2.23;82.93;101152.88;5254092;28;20015;-75
2022/04/03 01:37:28;;;;;;;3.72;2.00;;;;;;;-2.36;83.82;101150.84;5273396;28;20508;-75
2022/04/03 01:39:58;;;;;;;4.00;1.92;;;;;;;-2.30;84.00;101152.69;5269873;28;20020;-75
2022/04/03 01:42:28;;;;;;;4.95;1.70;;;;;;;-2.18;82.29;101142.78;5271816;28;20059;-75
2022/04/03 01:44:59;;;;;;;3.20;1.75;;;;;;;-2.41;83.26;101142.19;5261317;28;20073;-75
2022/04/03 01:47:29;;;;;;;2.28;1.33;;;;;;;-2.37;84.68;101141.44;5269768;28;20038;-75
2022/04/03 01:50:00;;;;;;;2.42;1.30;;;;;;;-2.35;84.04;101141.50;5271192;28;20028;-75
2022/04/03 01:52:30;;;;;;;2.55;1.27;;;;;;;-2.35;86.02;101146.59;5270402;28;20415;-75
2022/04/03 01:55:00;;;;;;;2.50;1.20;;;;;;;-2.43;86.74;101145.53;5273571;28;20100;-75
2022/04/03 01:57:31;;;;;;;3.63;1.60;;;;;;;-2.53;87.13;101151.25;5272052;28;20031;-75
2022/04/03 02:00:06;;;;;;;5.57;1.27;;;;;;;-2.59;87.14;101151.09;5272919;28;20104;-75
2022/04/03 02:02:37;;;;;;;3.60;1.35;;;;;;;-2.38;84.95;101142.28;5270911;28;20048;-75
2022/04/03 02:05:08;;;;;;;2.67;1.20;;;;;;;-2.56;84.32;101138.38;5274451;28;20035;-75
2022/04/03 02:07:39;;;;;;;3.17;1.42;;;;;;;-2.53;84.95;101147.00;5270632;28;20031;-75
2022/04/03 02:10:12;;;;;;;2.15;1.17;;;;;;;-2.41;84.04;101141.31;5266853;28;20028;-75
2022/04/03 02:12:43;;;;;;;3.35;1.38;;;;;;;-2.62;85.63;101135.66;5273947;28;20031;-75
2022/04/03 02:15:14;;;;;;;3.60;1.50;;;;;;;-2.50;85.49;101136.00;5262005;28;20028;-75
2022/04/03 02:17:44;;;;;;;4.13;1.80;;;;;;;-2.67;85.51;101135.53;5270883;28;20058;-75
2022/04/03 02:20:15;;;;;;;3.90;1.67;;;;;;;-2.64;87.40;101143.31;5277434;28;20043;-75
2022/04/03 02:22:45;;;;;;;2.88;1.67;;;;;;;-2.77;87.37;101136.16;5274375;28;20024;-75
2022/04/03 02:25:15;;;;;;;4.38;1.90;;;;;;;-2.81;87.90;101131.78;5277827;28;20023;-75
2022/04/03 02:27:46;;;;;;;4.90;2.00;;;;;;;-2.82;85.82;101137.69;5274857;28;20024;-75
2022/04/03 02:30:16;;;;;;;3.55;1.80;;;;;;;-3.02;85.95;101143.13;5276417;28;20476;-75
2022/04/03 02:32:47;;;;;;;4.50;1.67;;;;;;;-3.07;86.71;101145.53;5274489;28;20024;-76
2022/04/03 02:35:17;;;;;;;7.47;2.08;;;;;;;-3.04;87.18;101140.50;5276563;28;20030;-75
2022/04/03 02:37:47;;;;;;;3.60;1.83;;;;;;;-2.98;86.71;101150.03;5275009;28;20107;-75
2022/04/03 02:40:18;;;;;;;5.43;2.00;;;;;;;-3.19;86.98;101150.28;5276810;28;20032;-75
2022/04/03 02:42:48;;;;;;;4.68;1.80;;;;;;;-2.97;87.33;101151.75;5258211;28;20497;-75
2022/04/03 02:45:19;;;;;;;3.00;1.60;;;;;;;-2.74;85.99;101151.56;5262392;28;20028;-75
2022/04/03 02:47:51;;;;;;;3.00;1.60;;;;;;;-2.63;84.51;101150.16;5270484;28;20024;-75
2022/04/03 02:50:23;;;;;;;4.05;1.70;;;;;;;-2.67;84.06;101152.59;5275007;28;20027;-76
2022/04/03 02:52:54;;;;;;;3.22;1.70;;;;;;;-2.73;83.49;101148.19;5275014;28;20061;-75
2022/04/03 02:55:25;;;;;;;4.00;1.50;;;;;;;-2.77;84.01;101150.59;5276022;28;20031;-75
2022/04/03 02:57:55;;;;;;;3.30;1.63;;;;;;;-2.90;84.95;101148.53;5275039;28;20027;-75
2022/04/03 03:00:25;;;;;;;4.15;1.60;;;;;;;-2.72;85.25;101149.91;5275103;28;20432;-75
2022/04/03 03:02:56;;;;;;;3.13;1.75;;;;;;;-2.75;84.56;101142.16;5275453;28;20039;-75
2022/04/03 03:05:26;;;;;;;4.93;1.63;;;;;;;-2.96;86.05;101154.38;5275535;28;20019;-75
2022/04/03 03:07:56;;;;;;;3.85;1.60;;;;;;;-3.20;87.69;101143.47;5276202;28;20115;-75
2022/04/03 03:10:27;;;;;;;5.97;1.50;;;;;;;-3.18;87.65;101143.50;5276103;28;20028;-75
2022/04/03 03:12:57;;;;;;;3.88;1.80;;;;;;;-3.15;88.06;101146.16;5255383;28;20023;-75
2022/04/03 03:15:28;;;;;;;3.72;1.67;;;;;;;-3.09;87.76;101151.41;5263531;28;20115;-75
2022/04/03 03:17:58;;;;;;;6.03;2.05;;;;;;;-3.26;85.62;101153.53;5271697;28;20066;-75
2022/04/03 03:20:29;;;;;;;4.30;1.83;;;;;;;-3.20;86.80;101151.13;5274106;28;20028;-75
2022/04/03 03:23:00;;;;;;;6.82;2.30;;;;;;;-3.32;87.27;101150.78;5275022;28;20393;-75
2022/04/03 03:25:30;;;;;;;4.75;2.40;;;;;;;-3.16;87.20;101147.81;5273760;28;20446;-75
2022/04/03 03:28:01;;;;;;;5.68;2.05;;;;;;;-2.96;85.36;101148.38;5275201;28;20377;-75
2022/04/03 03:30:33;;;;;;;4.45;2.25;;;;;;;-2.94;85.40;101154.41;5273831;28;20470;-75
2022/04/03 03:33:04;;;;;;;6.28;2.35;;;;;;;-2.76;83.17;101150.66;5275655;28;20540;-75
2022/04/03 03:35:35;;;;;;;4.72;1.77;;;;;;;-3.14;85.17;101153.00;5273645;28;20060;-75
2022/04/03 03:38:05;;;;;;;4.55;2.30;;;;;;;-3.33;86.44;101156.69;5275867;28;20028;-75
2022/04/03 03:40:38;;;;;;;6.18;2.40;;;;;;;-3.21;85.36;101146.84;5276020;28;20053;-75
2022/04/03 03:43:09;;;;;;;5.95;2.30;;;;;;;-3.27;86.92;101151.78;5270614;28;20477;-75
2022/04/03 03:45:39;;;;;;;4.88;1.70;;;;;;;-3.21;86.06;101151.94;5258782;28;20077;-75
2022/04/03 03:48:12;;;;;;;4.05;1.88;;;;;;;-3.05;85.17;101156.66;5272779;28;20031;-75
2022/04/03 03:50:42;;;;;;;5.82;2.40;;;;;;;-3.08;83.97;101154.03;5272027;28;20108;-75
2022/04/03 03:53:13;;;;;;;4.25;1.98;;;;;;;-3.06;84.37;101161.75;5275779;28;20102;-75
2022/04/03 03:55:43;;;;;;;4.13;2.05;;;;;;;-3.17;84.19;101158.03;5272570;28;20074;-75
2022/04/03 03:58:14;;;;;;;4.85;2.05;;;;;;;-3.13;84.29;101159.84;5275709;28;20051;-75
2022/04/03 04:00:44;;;;;;;3.15;1.83;;;;;;;-3.16;84.75;101157.19;5272661;28;20024;-75
2022/04/03 04:03:15;;;;;;;4.78;2.10;;;;;;;-3.41;86.07;101154.75;5275309;28;20051;-75
2022/04/03 04:05:45;;;;;;;4.15;2.13;;;;;;;-3.16;85.55;101155.50;5272784;28;20421;-75
2022/04/03 04:08:15;;;;;;;5.03;2.13;;;;;;;-3.12;85.48;101156.44;5275002;28;20034;-75
2022/04/03 04:10:45;;;;;;;4.35;1.98;;;;;;;-3.12;84.19;101165.00;5275020;28;20051;-75
2022/04/03 04:13:16;;;;;;;4.78;2.33;;;;;;;-3.13;85.88;101167.50;5270295;28;20032;-75
2022/04/03 04:15:46;;;;;;;3.85;2.10;;;;;;;-3.35;86.67;101157.50;5263242;28;20026;-75
2022/04/03 04:18:16;;;;;;;6.95;2.60;;;;;;;-3.21;87.99;101154.50;5269248;28;20040;-75
2022/04/03 04:20:46;;;;;;;6.28;2.75;;;;;;;-3.42;87.44;101160.69;5273547;28;20277;-75
2022/04/03 04:23:17;;;;;;;6.40;2.85;;;;;;;-3.27;88.64;101162.00;5272912;28;20032;-75
2022/04/03 04:25:47;;;;;;;4.43;2.45;;;;;;;-3.11;86.97;101159.06;5274712;28;20027;-75
2022/04/03 04:28:17;;;;;;;4.00;2.33;;;;;;;-3.12;86.17;101166.66;5272445;28;20059;-75
2022/04/03 04:30:47;;;;;;;4.57;2.38;;;;;;;-2.82;85.37;101165.81;5274117;28;20027;-75
2022/04/03 04:33:19;;;;;;;4.32;2.10;;;;;;;-2.79;85.38;101178.72;5272801;28;20036;-75
2022/04/03 04:35:50;;;;;;;4.68;2.42;;;;;;;-3.02;87.23;101168.69;5274447;28;20037;-75
2022/04/03 04:38:20;;;;;;;5.68;2.63;;;;;;;-2.89;88.19;101169.03;5270234;28;20548;-75
2022/04/03 04:40:51;;;;;;;5.88;2.53;;;;;;;-3.00;87.95;101167.03;5272410;28;20103;-75
2022/04/03 04:43:21;;;;;;;4.70;2.72;;;;;;;-3.13;89.65;101165.81;5269640;28;20034;-75
2022/04/03 04:45:51;;;;;;;6.90;2.65;;;;;;;-2.91;88.32;101173.25;5262723;28;20067;-75
2022/04/03 04:48:22;;;;;;;5.20;2.92;;;;;;;-2.92;87.04;101171.53;5271210;28;20055;-75
2022/04/03 04:50:52;;;;;;;6.22;3.17;;;;;;;-2.78;88.82;101165.09;5272153;28;20028;-75
2022/04/03 04:53:23;;;;;;;5.75;3.30;;;;;;;-2.63;87.76;101157.84;5274004;28;20106;-77
2022/04/03 04:55:54;;;;;;;6.63;3.42;;;;;;;-2.66;87.22;101160.28;5273457;28;20079;-77
2022/04/03 04:58:24;;;;;;;6.63;3.40;;;;;;;-2.81;88.88;101170.13;5273000;28;20039;-75
2022/04/03 05:00:55;;;;;;;6.75;3.60;;;;;;;-2.78;89.90;101166.78;5273156;28;20164;-75
2022/04/03 05:03:25;;;;;;;6.05;3.50;;;;;;;-2.61;87.87;101168.97;5254855;28;20024;-75
2022/04/03 05:05:56;;;;;;;7.68;3.30;;;;;;;-2.45;88.44;101163.44;5273282;28;20205;-75
2022/04/03 05:08:26;;;;;;;6.03;3.42;;;;;;;-2.37;88.79;101164.47;5273580;28;20063;-75
2022/04/03 05:10:57;;;;;;;7.35;3.10;;;;;;;-2.54;90.93;101165.72;5272716;28;20020;-75
2022/04/03 05:13:28;;;;;;;7.82;3.60;;;;;;;-2.21;90.10;101166.59;5269453;28;20023;-75
2022/04/03 05:15:58;;;;;;;7.18;3.30;;;;;;;-2.65;92.63;101176.50;5261577;28;20032;-75
2022/04/03 05:18:28;;;;;;;6.75;3.05;;;;;;;-2.65;92.41;101172.25;5270833;28;20023;-75
2022/04/03 05:20:59;;;;;;;5.65;3.08;;;;;;;-2.31;92.27;101179.97;5273369;28;20032;-75
2022/04/03 05:23:29;;;;;;;6.15;2.80;;;;;;;-1.90;89.46;101168.16;5272511;28;20466;-75
2022/04/03 05:25:59;;;;;;;5.68;2.92;;;;;;;-2.27;91.50;101171.56;5273518;28;20080;-75
2022/04/03 05:28:30;;;;;;;4.47;2.47;;;;;;;-1.82;90.89;101163.28;5272258;28;20024;-75
2022/04/03 05:31:00;;;;;;;5.03;2.70;;;;;;;-1.82;89.59;101162.41;5273262;28;20045;-75
2022/04/03 05:33:31;;;;;;;6.93;2.90;;;;;;;-1.82;90.65;101170.97;5272386;28;20024;-74
2022/04/03 05:36:01;;;;;;;5.93;2.58;;;;;;;-2.03;91.70;101176.41;5274009;28;20016;-74
2022/04/03 05:38:32;;;;;;;5.93;2.80;;;;;;;-1.84;92.10;101179.44;5274443;28;20027;-75
2022/04/03 05:41:02;;;;;;;5.43;2.40;;;;;;;-1.71;89.86;101177.19;5271395;28;20049;-74
2022/04/03 05:43:32;;;;;;;4.85;2.30;;;;;;;-1.33;89.41;101165.22;5269377;28;20026;-74
2022/04/03 05:46:03;;;;;;;7.82;2.50;;;;;;;-1.43;89.29;101181.25;5243784;28;20019;-75
2022/04/03 05:48:34;;;;;;;4.55;2.00;;;;;;;-1.53;90.30;101177.63;5270884;28;20024;-75
2022/04/03 05:51:04;;;;;;;6.63;2.60;;;;;;;-1.30;89.46;101185.78;5277138;28;20044;-75
2022/04/03 05:53:34;;;;;;;6.13;2.63;;;;;;;-1.39;87.77;101191.56;5275020;28;20022;-75
2022/04/03 05:56:05;;;;;;;7.25;2.30;;;;;;;-0.97;85.16;101181.34;5278083;28;20096;-75
2022/04/03 05:58:35;;;;;;;5.50;2.38;;;;;;;-0.63;83.65;101183.72;5275133;28;20019;-75
2022/04/03 06:01:05;;;;;;;5.63;2.17;;;;;;;-0.69;83.85;101183.63;5277875;28;20057;-75
2022/04/03 06:03:36;;;;;;;4.22;2.10;;;;;;;-0.42;83.77;101185.00;5271157;28;20098;-74
2022/04/03 06:06:06;;;;;;;5.07;2.20;;;;;;;-0.29;83.85;101183.50;5269594;28;20032;-75
2022/04/03 06:08:36;;;;;;;5.22;2.28;;;;;;;-0.23;81.99;101178.50;5277908;28;20488;-75
2022/04/03 06:11:06;;;;;;;4.20;2.08;;;;;;;-0.47;80.80;101185.75;5274705;28;20057;-75
2022/04/03 06:13:37;;;;;;;4.30;2.17;;;;;;;-0.35;81.16;101183.41;5272923;28;20024;-75
2022/04/03 06:16:07;;;;;;;4.43;2.20;;;;;;;-0.34;82.54;101186.03;5265096;28;20082;-75
2022/04/03 06:18:38;;;;;;;4.78;2.25;;;;;;;0.04;80.93;101185.81;5273871;28;20504;-75
2022/04/03 06:21:09;;;;;;;4.30;2.08;;;;;;;-0.01;81.18;101178.84;5277752;28;20024;-75
2022/04/03 06:23:39;;;;;;;6.47;2.50;;;;;;;0.23;80.21;101177.53;5274677;28;20024;-75
2022/04/03 06:26:09;;;;;;;4.22;1.85;;;;;;;0.18;79.71;101180.91;5278348;28;20542;-74
2022/04/03 06:28:40;;;;;;;5.70;2.00;;;;;;;-0.54;83.73;101183.94;5273817;28;20028;-75
2022/04/03 06:31:10;;;;;;;4.30;2.20;;;;;;;-0.32;83.96;101181.78;5277430;28;20032;-75
2022/04/03 06:33:40;;;;;;;7.18;2.25;;;;;;;0.02;82.59;101174.63;5269807;28;20046;-75
2022/04/03 06:36:11;;;;;;;6.10;2.30;;;;;;;-0.03;83.94;101181.41;5251254;28;20118;-75
2022/04/03 06:38:41;;;;;;;4.55;2.50;;;;;;;-0.16;83.94;101183.75;5275523;28;20505;-75
2022/04/03 06:41:11;;;;;;;5.90;2.42;;;;;;;-0.26;85.35;101181.88;5269993;28;20024;-75
2022/04/03 06:43:43;;;;;;;6.00;2.70;;;;;;;0.17;84.00;101174.88;5269984;28;20024;-75
2022/04/03 06:46:14;;;;;;;3.83;2.30;;;;;;;0.07;84.56;101177.28;5267768;28;20084;-75
2022/04/03 06:48:44;;;;;;;5.30;2.60;;;;;;;0.14;83.47;101177.41;5268365;28;20031;-75
2022/04/03 06:51:15;;;;;;;5.60;2.60;;;;;;;0.67;82.38;101168.78;5267349;28;20469;-76
2022/04/03 06:53:45;;;;;;;5.50;3.20;;;;;;;0.61;79.54;101178.97;5270989;28;20092;-75
2022/04/03 06:56:16;;;;;;;5.32;2.55;;;;;;;0.83;76.46;101174.97;5266488;28;20126;-76
2022/04/03 06:58:46;;;;;;;4.32;2.63;;;;;;;1.11;75.85;101183.06;5271111;28;20179;-76
2022/04/03 07:01:17;;;;;;;6.32;2.67;;;;;;;1.63;74.73;101175.06;5268064;28;20087;-76
2022/04/03 07:03:47;;;;;;;7.20;2.63;;;;;;;4.83;67.95;101170.97;5271714;28;20021;-76
2022/04/03 07:06:17;;;;;;;6.18;2.78;;;;;;;6.93;60.23;101139.16;5251337;28;20020;-76
2022/04/03 07:08:48;;;;;;;4.07;2.17;;;;;;;7.40;56.85;101144.63;5243736;28;20094;-76
2022/04/03 07:11:19;;;;;;;3.97;2.33;;;;;;;8.35;53.05;101147.47;5260291;28;20025;-76
2022/04/03 07:13:49;;;;;;;3.70;1.92;;;;;;;7.87;53.72;101140.44;5261586;28;20415;-77
2022/04/03 07:16:19;;;;;;;5.20;2.10;;;;;;;9.39;51.19;101136.72;5259405;28;20027;-77
2022/04/03 07:18:50;;;;;;;4.60;1.98;;;;;;;11.87;47.83;101125.59;5263514;28;20271;-77
2022/04/03 07:21:20;;;;;;;4.43;2.17;;;;;;;12.50;46.42;101121.69;5260147;28;20035;-77
2022/04/03 07:23:51;;;;;;;4.72;2.00;;;;;;;14.05;44.54;101120.09;5259922;28;20023;-77
2022/04/03 07:26:21;;;;;;;2.80;2.00;;;;;;;13.19;43.54;101124.41;5242756;28;20164;-77
2022/04/03 07:28:51;;;;;;;3.13;1.90;;;;;;;13.41;43.76;101131.44;5264101;28;20111;-77
2022/04/03 07:31:22;;;;;;;3.53;2.30;;;;;;;13.55;43.10;101129.13;5268195;28;20278;-77
2022/04/03 07:33:52;;;;;;;3.90;2.00;;;;;;;13.32;44.06;101125.69;5268834;28;20024;-77
2022/04/03 07:36:22;;;;;;;2.53;1.73;;;;;;;12.77;44.72;101130.38;5268174;28;20508;-77
2022/04/03 07:38:53;;;;;;;3.70;1.90;;;;;;;13.48;43.04;101124.19;5267459;28;20020;-77
2022/04/03 07:41:24;;;;;;;3.95;1.98;;;;;;;15.78;41.40;101116.66;5268105;28;20282;-78
2022/04/03 07:43:54;;;;;;;3.83;1.95;;;;;;;16.23;40.93;101114.38;5260461;28;20032;-77
2022/04/03 07:46:24;;;;;;;4.40;2.20;;;;;;;13.92;42.40;101123.28;5262272;28;20063;-77
2022/04/03 07:48:54;;;;;;;2.80;1.80;;;;;;;15.49;40.42;101119.81;5263608;28;20282;-77
2022/04/03 07:51:26;;;;;;;4.50;1.80;;;;;;;14.91;41.85;101126.00;5268084;28;20361;-77
2022/04/03 07:53:57;;;;;;;3.08;1.88;;;;;;;16.18;40.69;101120.84;5268820;28;20349;-77
2022/04/03 07:56:27;;;;;;;3.55;2.00;;;;;;;15.59;41.17;101110.56;5268168;28;20098;-77
2022/04/03 07:58:58;;;;;;;5.28;1.88;;;;;;;16.41;41.50;101116.13;5268957;28;20067;-77
2022/04/03 08:01:28;;;;;;;3.55;1.70;;;;;;;16.28;41.54;101115.03;5268272;28;20020;-77
2022/04/03 08:03:58;;;;;;;2.70;1.93;;;;;;;14.40;41.56;101127.41;5265760;28;20024;-77
2022/04/03 08:06:28;;;;;;;5.72;2.10;;;;;;;14.43;41.04;101122.00;5275686;28;20305;-77
2022/04/03 08:08:59;;;;;;;3.85;1.88;;;;;;;15.93;41.65;101112.41;5254064;28;20589;-77
2022/04/03 08:11:29;;;;;;;3.85;1.80;;;;;;;15.01;41.84;101110.66;5271924;28;20020;-77
2022/04/03 08:13:59;;;;;;;4.60;1.90;;;;;;;14.82;42.75;101115.88;5261304;28;20396;-77
2022/04/03 08:16:30;;;;;;;3.85;1.73;;;;;;;13.52;44.78;101118.75;5272695;28;20084;-77
2022/04/03 08:19:03;;;;;;;3.20;1.83;;;;;;;14.79;43.07;101111.69;5274029;28;20137;-77
2022/04/03 08:21:33;;;;;;;3.53;1.70;;;;;;;15.36;42.48;101113.41;5276216;28;20273;-77
2022/04/03 08:24:04;;;;;;;3.33;1.75;;;;;;;14.28;43.37;101116.56;5272236;28;20745;-77
2022/04/03 08:26:34;;;;;;;3.90;1.70;;;;;;;15.39;41.83;101115.06;5275027;28;20389;-77
2022/04/03 08:29:04;;;;;;;4.93;1.80;;;;;;;14.49;44.16;101107.75;5255417;28;20530;-76
2022/04/03 08:31:35;;;;;;;4.72;1.75;;;;;;;15.54;43.44;101103.81;5275833;28;20099;-76
2022/04/03 08:34:05;;;;;;;3.42;1.65;;;;;;;14.09;44.81;101115.56;5268358;28;20027;-77
2022/04/03 08:36:35;;;;;;;3.10;1.63;;;;;;;13.98;44.66;101112.53;5265267;28;20019;-76
2022/04/03 08:39:07;;;;;;;2.53;1.73;;;;;;;12.48;46.94;101117.41;5270627;28;20292;-76
2022/04/03 08:41:37;;;;;;;4.47;2.00;;;;;;;14.82;44.47;101096.63;5275581;28;20465;-76
2022/04/03 08:44:08;;;;;;;4.22;1.80;;;;;;;13.56;45.25;101109.84;5267156;28;20028;-76
2022/04/03 08:46:45;;;;;;;3.35;1.67;;;;;;;14.10;44.71;101096.25;5271183;28;20053;-77
2022/04/03 08:49:19;;;;;;;3.50;2.13;;;;;;;13.88;44.76;101096.28;5268966;28;20035;-77
2022/04/03 08:51:50;;;;;;;4.55;2.10;;;;;;;14.53;45.23;101096.16;5257187;28;20560;-77
2022/04/03 08:54:20;;;;;;;4.72;2.10;;;;;;;14.22;45.11;101101.03;5264144;28;20107;-77
2022/04/03 08:56:51;;;;;;;4.72;1.98;;;;;;;13.46;46.36;101094.50;5271138;28;20027;-77
2022/04/03 08:59:21;;;;;;;3.13;2.03;;;;;;;11.51;48.91;101109.25;5272299;28;20492;-76
2022/04/03 09:01:52;;;;;;;5.57;2.23;;;;;;;10.54;51.56;101116.50;5268548;28;20072;-76
2022/04/03 09:04:22;;;;;;;10.00;4.85;;;;;;;10.16;52.19;101119.25;5256449;28;20294;-76
2022/04/03 09:06:58;;;;;;;3.63;1.50;;;;;;;10.76;51.32;101109.75;5264844;28;20027;-77
2022/04/03 09:09:28;;;;;;;4.25;2.03;;;;;;;11.58;50.64;101099.50;5267664;28;20273;-77
2022/04/03 09:12:14;;;;;;;6.10;3.30;;;;;;;11.05;51.68;101110.66;5269719;28;20196;-76
2022/04/03 09:14:55;;;;;;;16.17;6.88;;;;;;;9.64;53.78;101113.53;5266225;28;20501;-77
2022/04/03 09:17:32;;;;;;;9.48;4.95;;;;;;;8.84;56.00;101124.84;5271006;28;20447;-76
2022/04/03 09:20:06;;;;;;;4.32;2.15;;;;;;;8.59;56.58;101115.75;5272025;28;20051;-76
2022/04/03 09:22:37;;;;;;;3.83;1.98;;;;;;;8.95;56.56;101117.69;5275037;28;20024;-76
2022/04/03 09:25:10;;;;;;;2.83;1.63;;;;;;;9.14;56.11;101113.78;5264185;28;20571;-77
2022/04/03 09:27:51;;;;;;;6.40;2.45;;;;;;;9.11;56.11;101113.88;5258635;28;21456;-76
2022/04/03 09:30:35;;;;;;;8.52;5.18;;;;;;;8.75;56.64;101114.56;5260616;28;20066;-77
2022/04/03 09:33:07;;;;;;;4.68;2.78;;;;;;;8.21;57.56;101112.16;5255689;28;20034;-76
2022/04/03 09:35:58;;;;;;;6.47;2.60;;;;;;;7.50;59.40;101113.25;5274369;28;20409;-77
2022/04/03 09:38:30;;;;;;;8.13;3.08;;;;;;;7.05;60.69;101110.44;5270303;28;20035;-76
2022/04/03 09:41:01;;;;;;;4.63;2.50;;;;;;;6.68;61.83;101105.69;5251119;28;20118;-76
2022/04/03 09:43:34;;;;;;;26.15;9.45;;;;;;;7.09;61.69;101108.66;5265676;28;20648;-76
2022/04/03 09:46:09;;;;;;;26.25;9.65;;;;;;;7.14;61.23;101106.88;5269801;28;20134;-76
2022/04/03 09:48:43;;;;;;;8.52;3.72;;;;;;;7.27;60.72;101103.22;5276524;28;20036;-76
2022/04/03 09:51:19;;;;;;;12.50;4.72;;;;;;;7.82;59.75;101092.81;5273686;28;20554;-76
2022/04/03 09:54:00;;;;;;;;;;;;;;;7.83;58.81;101097.13;5270020;28;20028;-76
2022/04/03 09:56:33;;;;;;;4.50;1.75;;;;;;;8.87;58.46;101087.44;5275135;28;20633;-77
2022/04/03 09:59:06;;;;;;;3.10;1.98;;;;;;;8.76;57.48;101094.59;5276881;28;20118;-76
2022/04/03 10:01:39;;;;;;;2.97;1.50;;;;;;;9.04;57.13;101080.97;5273889;28;20548;-77
2022/04/03 10:04:14;;;;;;;5.60;2.90;;;;;;;9.53;56.54;101079.88;5271541;28;20110;-76
2022/04/03 10:06:44;;;;;;;3.90;2.00;;;;;;;9.35;57.20;101079.41;5267852;28;20043;-76
2022/04/03 10:09:16;;;;;;;5.22;1.70;;;;;;;9.18;56.36;101071.09;5261351;28;20556;-76
2022/04/03 10:11:47;;;;;;;3.33;1.50;;;;;;;9.07;56.00;101069.63;5241067;28;20036;-77
2022/04/03 10:14:20;;;;;;;5.25;2.10;;;;;;;8.51;57.14;101070.78;5254855;28;20031;-76
2022/04/03 10:16:51;;;;;;;4.15;1.70;;;;;;;8.51;56.72;101073.38;5254568;28;20074;-77
2022/04/03 10:19:21;;;;;;;5.05;1.90;;;;;;;8.54;57.39;101075.91;5256308;28;20036;-77
2022/04/03 10:21:56;;;;;;;4.40;1.63;;;;;;;7.98;58.82;101076.06;5259631;28;20047;-77
2022/04/03 10:24:29;;;;;;;4.77;1.30;;;;;;;7.50;60.19;101070.81;5270774;28;20050;-77
2022/04/03 10:27:27;;;;;;;3.38;1.80;;;;;;;7.47;59.81;101082.09;5272157;28;20127;-77
2022/04/03 10:29:58;;;;;;;6.85;2.50;;;;;;;6.99;61.08;101071.56;5252330;28;20200;-77
2022/04/03 10:32:33;;;;;;;3.13;1.60;;;;;;;6.81;62.13;101076.13;5271456;28;20575;-76
2022/04/03 10:35:09;;;;;;;2.97;1.70;;;;;;;6.78;61.71;101070.97;5273471;28;20052;-77
2022/04/03 10:37:43;;;;;;;6.95;2.10;;;;;;;6.88;61.37;101062.16;5251277;28;20043;-77
2022/04/03 10:40:16;;;;;;;2.80;1.65;;;;;;;6.96;61.97;101060.34;5267039;28;20397;-76
2022/04/03 10:42:53;;;;;;;4.00;1.55;;;;;;;7.13;61.33;101069.59;5271004;28;20108;-77
2022/04/03 10:45:32;;;;;;;4.45;1.90;;;;;;;6.88;62.28;101062.16;5263894;28;20032;-77
2022/04/03 10:48:20;;;;;;;3.65;1.60;;;;;;;6.87;62.32;101074.31;5237907;28;20090;-77
2022/04/03 10:51:05;;;;;;;5.10;1.95;;;;;;;6.59;63.86;101065.13;5263084;28;20143;-76
2022/04/03 10:53:47;;;;;;;5.22;2.10;;;;;;;6.86;63.55;101063.91;5268021;28;20067;-76
2022/04/03 10:56:23;;;;;;;4.10;1.48;;;;;;;6.76;63.43;101064.94;5267530;28;20036;-76
2022/04/03 11:01:31;;;;;;;5.97;1.40;;;;;;;6.57;63.61;101066.88;5272123;28;20392;-77
2022/04/03 11:04:10;;;;;;;3.03;1.58;;;;;;;6.54;64.81;101064.31;5281749;28;20119;-76
2022/04/03 11:06:43;;;;;;;3.90;1.85;;;;;;;6.58;64.44;101057.38;5274950;28;20032;-77
2022/04/03 11:09:23;;;;;;;4.50;1.75;;;;;;;6.41;64.76;101048.91;5279630;28;20047;-76
2022/04/03 11:11:55;;;;;;;4.65;1.58;;;;;;;6.56;66.00;101059.13;5270145;28;20035;-76
2022/04/03 11:14:52;;;;;;;4.43;1.58;;;;;;;6.69;65.82;101055.47;5262219;28;20036;-77
2022/04/03 11:17:48;;;;;;;4.45;2.30;;;;;;;6.89;65.97;101043.09;5258935;28;20021;-77
2022/04/03 11:20:32;;;;;;;4.17;2.40;;;;;;;7.31;64.69;101053.75;5258470;28;20120;-77
2022/04/03 11:23:03;;;;;;;4.93;2.58;;;;;;;7.62;65.07;101044.59;5267747;28;20445;-78
2022/04/03 11:25:34;;;;;;;6.10;2.30;;;;;;;7.79;64.24;101043.44;5269858;28;20040;-78
2022/04/03 11:28:06;;;;;;;5.70;2.20;;;;;;;7.75;64.47;101036.59;5266913;28;20101;-76
2022/04/03 11:30:37;;;;;;;4.22;1.88;;;;;;;7.70;65.51;101043.59;5269522;28;20123;-77
2022/04/03 11:33:07;;;;;;;7.00;3.15;;;;;;;7.85;65.09;101035.53;5269362;28;20059;-77
2022/04/03 11:35:40;;;;;;;3.40;1.48;;;;;;;7.78;64.36;101033.94;5269951;28;20093;-76
2022/04/03 11:38:11;;;;;;;6.20;1.90;;;;;;;7.95;64.23;101039.69;5255551;28;20035;-75
2022/04/03 11:40:42;;;;;;;34.30;10.32;;;;;;;7.86;63.84;101019.03;5266915;28;20046;-77
2022/04/03 11:43:15;;;;;;;9.80;3.22;;;;;;;7.71;63.25;101019.28;5262328;28;20029;-77
2022/04/03 11:45:57;;;;;;;17.75;6.70;;;;;;;7.95;64.25;101013.66;5261467;28;20059;-78
2022/04/03 11:48:32;;;;;;;4.20;2.10;;;;;;;7.78;62.92;101005.31;5261874;28;20252;-79
2022/04/03 11:51:14;;;;;;;3.83;1.80;;;;;;;8.02;64.09;101004.00;5268894;28;20043;-76